Terminal Aerodrome Forecast
Issued by NWS Houston/Galveston, TX

Home | Current Version | Previous Version | Text Only | Print | Product List | Glossary On
Versions: 1 2 3 4 5 6 7 8 9 10 11 12 13 14 15 16 17 18 19 20 21 22 23 24 25 26 27 28 29 30 31 32 33 34 35 36 37 38 39 40 41 42 43 44 45
000
FTUS44 KHGX 292141 AAB
TAFGLS
TAF AMD
KGLS 292141Z 2922/3018 13007KT 4SM SHRA BR BKN045 OVC100
     FM292300 17012KT P6SM SCT025 SCT150
     FM300500 18006KT P6SM VCSH SCT020 SCT150=

USA.gov is the U.S. government's official web portal to all federal, state and local government web resources and services.